sensor_id;sensor_type;location;lat;lon;timestamp;P1;durP1;ratioP1;P2;durP2;ratioP2
39740;SDS011;25426;53.478;10.190;2023-04-25T00:00:30;5.53;;;4.50;;
39740;SDS011;25426;53.478;10.190;2023-04-25T00:03:00;9.00;;;5.30;;
39740;SDS011;25426;53.478;10.190;2023-04-25T00:05:31;6.63;;;4.60;;
39740;SDS011;25426;53.478;10.190;2023-04-25T00:08:03;6.68;;;4.85;;
39740;SDS011;25426;53.478;10.190;2023-04-25T00:10:34;5.38;;;4.40;;
39740;SDS011;25426;53.478;10.190;2023-04-25T00:13:05;6.38;;;3.95;;
39740;SDS011;25426;53.478;10.190;2023-04-25T00:15:38;8.57;;;5.13;;
39740;SDS011;25426;53.478;10.190;2023-04-25T00:18:11;5.82;;;4.30;;
39740;SDS011;25426;53.478;10.190;2023-04-25T00:20:42;8.70;;;4.72;;
39740;SDS011;25426;53.478;10.190;2023-04-25T00:23:16;7.40;;;4.70;;
39740;SDS011;25426;53.478;10.190;2023-04-25T00:25:49;9.88;;;5.18;;
39740;SDS011;25426;53.478;10.190;2023-04-25T00:28:20;7.03;;;5.00;;
39740;SDS011;25426;53.478;10.190;2023-04-25T00:30:51;7.07;;;5.00;;
39740;SDS011;25426;53.478;10.190;2023-04-25T00:33:22;7.72;;;5.38;;
39740;SDS011;25426;53.478;10.190;2023-04-25T00:35:53;9.57;;;5.45;;
39740;SDS011;25426;53.478;10.190;2023-04-25T00:38:24;9.15;;;6.35;;
39740;SDS011;25426;53.478;10.190;2023-04-25T00:40:55;13.23;;;6.00;;
39740;SDS011;25426;53.478;10.190;2023-04-25T00:43:27;10.73;;;5.55;;
39740;SDS011;25426;53.478;10.190;2023-04-25T00:45:59;11.80;;;5.10;;
39740;SDS011;25426;53.478;10.190;2023-04-25T00:48:31;12.75;;;5.47;;
39740;SDS011;25426;53.478;10.190;2023-04-25T00:51:02;16.33;;;5.78;;
39740;SDS011;25426;53.478;10.190;2023-04-25T00:53:33;13.85;;;5.45;;
39740;SDS011;25426;53.478;10.190;2023-04-25T00:56:04;12.00;;;4.97;;
39740;SDS011;25426;53.478;10.190;2023-04-25T00:58:35;14.75;;;5.65;;
39740;SDS011;25426;53.478;10.190;2023-04-25T01:01:07;20.95;;;5.20;;
39740;SDS011;25426;53.478;10.190;2023-04-25T01:03:39;14.57;;;5.93;;
39740;SDS011;25426;53.478;10.190;2023-04-25T01:06:10;20.48;;;5.57;;
39740;SDS011;25426;53.478;10.190;2023-04-25T01:08:42;21.23;;;6.20;;
39740;SDS011;25426;53.478;10.190;2023-04-25T01:11:13;29.88;;;6.40;;
39740;SDS011;25426;53.478;10.190;2023-04-25T01:13:44;20.50;;;6.38;;
39740;SDS011;25426;53.478;10.190;2023-04-25T01:16:15;23.63;;;6.18;;
39740;SDS011;25426;53.478;10.190;2023-04-25T01:18:46;17.80;;;5.95;;
39740;SDS011;25426;53.478;10.190;2023-04-25T01:21:18;24.42;;;6.30;;
39740;SDS011;25426;53.478;10.190;2023-04-25T01:23:51;19.05;;;5.82;;
39740;SDS011;25426;53.478;10.190;2023-04-25T01:26:22;20.08;;;5.80;;
39740;SDS011;25426;53.478;10.190;2023-04-25T01:28:53;23.02;;;6.90;;
39740;SDS011;25426;53.478;10.190;2023-04-25T01:31:24;24.83;;;7.05;;
39740;SDS011;25426;53.478;10.190;2023-04-25T01:33:56;17.55;;;6.20;;
39740;SDS011;25426;53.478;10.190;2023-04-25T01:36:27;18.38;;;5.90;;
39740;SDS011;25426;53.478;10.190;2023-04-25T01:38:59;24.00;;;6.93;;
39740;SDS011;25426;53.478;10.190;2023-04-25T01:41:30;21.52;;;7.32;;
39740;SDS011;25426;53.478;10.190;2023-04-25T01:44:02;20.42;;;6.00;;
39740;SDS011;25426;53.478;10.190;2023-04-25T01:46:33;25.85;;;6.43;;
39740;SDS011;25426;53.478;10.190;2023-04-25T01:49:05;19.55;;;6.43;;
39740;SDS011;25426;53.478;10.190;2023-04-25T01:51:37;22.08;;;6.32;;
39740;SDS011;25426;53.478;10.190;2023-04-25T01:54:08;22.17;;;7.07;;
39740;SDS011;25426;53.478;10.190;2023-04-25T01:56:41;25.98;;;7.05;;
39740;SDS011;25426;53.478;10.190;2023-04-25T01:59:14;24.17;;;6.40;;
39740;SDS011;25426;53.478;10.190;2023-04-25T02:02:10;18.50;;;6.57;;
39740;SDS011;25426;53.478;10.190;2023-04-25T03:08:32;24.48;;;7.60;;
39740;SDS011;25426;53.478;10.190;2023-04-25T21:58:47;5.80;;;2.03;;
39740;SDS011;25426;53.478;10.190;2023-04-25T22:01:18;12.93;;;2.57;;
39740;SDS011;25426;53.478;10.190;2023-04-25T22:03:49;10.57;;;2.73;;
39740;SDS011;25426;53.478;10.190;2023-04-25T22:06:20;9.25;;;2.88;;
39740;SDS011;25426;53.478;10.190;2023-04-25T22:08:51;6.25;;;2.42;;
39740;SDS011;25426;53.478;10.190;2023-04-25T22:11:22;5.30;;;2.17;;
39740;SDS011;25426;53.478;10.190;2023-04-25T22:13:57;9.25;;;2.55;;
39740;SDS011;25426;53.478;10.190;2023-04-25T22:16:28;7.93;;;3.13;;
39740;SDS011;25426;53.478;10.190;2023-04-25T22:18:59;10.47;;;2.47;;
39740;SDS011;25426;53.478;10.190;2023-04-25T22:21:30;7.88;;;2.55;;
39740;SDS011;25426;53.478;10.190;2023-04-25T22:24:01;5.47;;;1.90;;
39740;SDS011;25426;53.478;10.190;2023-04-25T22:26:32;3.60;;;2.03;;
39740;SDS011;25426;53.478;10.190;2023-04-25T22:29:03;5.30;;;1.47;;
39740;SDS011;25426;53.478;10.190;2023-04-25T22:31:34;5.80;;;2.20;;
39740;SDS011;25426;53.478;10.190;2023-04-25T22:34:05;6.85;;;2.17;;
39740;SDS011;25426;53.478;10.190;2023-04-25T22:36:36;7.33;;;2.10;;
39740;SDS011;25426;53.478;10.190;2023-04-25T22:39:08;6.47;;;2.53;;
39740;SDS011;25426;53.478;10.190;2023-04-25T22:41:39;4.97;;;2.33;;
